Warning: Javascript must be enabled to use all the features on this page!


Page Loading - Please Wait...

Click to hideNews Bulletins
  • Have your voice heard. Have a few minutes? We're surveying users about their experience with Water Data for the Nation (WDFN). Please take a few minutes to complete our online survey.
  • See the Water Data for the Nation Blog for the latest news and updates.

Peak Streamflow for the Nation

USGS 14161500 LOOKOUT CREEK NEAR BLUE RIVER, OR

Lane County, Oregon
Hydrologic Unit Code 17090004
Latitude  44°12'35", Longitude 122°15'20" NAD27
Drainage area 24.1  square miles
Gage datum 1,377.76 feet above NGVD29
Output formats
Table
Graph
Tab-separated file
peakfq (watstore) format
Reselect output format
Water
Year
Date Gage
Height
(feet)
Stream-
flow
(cfs)
1950 1950-02-24 5.98 1,980
1951 1950-10-29 5.83 1,800
1952 1951-10-23 5.36 1,320
1953 1953-01-18 7.18 3,620
1954 1953-11-22 6.39 2,490
1955 1954-12-30 5.15 1,150
1964 1963-11-08 5.60 1,380
1965 1964-12-22 8.88 6,660
1966 1966-01-06 5.20 1,140
1967 1967-01-28 5.60 1,560
1968 1968-02-23 6.13 1,960
1969 1968-12-04 6.56 2,160
1970 1970-01-18 6.10 1,920
1971 1971-01-18 6.60 2,360
1972 1972-01-21 7.79 4,180
1973 1972-12-20 4.82 822
1974 1974-01-15 5.56 1,310
1975 1975-01-25 5.52 1,320
1976 1976-01-08 5.93 1,630
1977 1977-03-09 3.68 293
1978 1977-11-25 7.12 3,050
1979 1978-12-04 5.29 1,160
1980 1980-01-12 5.81 1,560
1981 1980-12-25 6.48 2,220
1982 1981-12-06 5.97 1,750
1983 1982-12-04 5.64 1,470
1984 1984-02-13 6.33 2,100
1985 1984-11-02 5.30 1,130
1986 1986-02-23 6.82 2,700
1987 1986-11-28 5.00 970
1988 1987-12-09 5.18 1,090
1989 1989-01-09 5.92 1,680
1990 1990-01-07 6.20 1,960
1991 1991-01-12 5.06 1,010
1992 1991-11-26 5.21 1,110
1993 1993-03-18 5.37 1,220
1994 1994-01-03 4.73 827
1995 1995-01-13 5.98 1,770
1996 1996-02-07 10.03 8,0002
1997 1996-11-19 6.99 2,980
1998 1997-10-30 5.64 1,470
1999 1998-12-28 7.26 3,380
2000 1999-11-26 7.13 3,180
2001 2000-12-22 3.83 377
2002 2001-12-13 6.04 1,830
2003 2003-01-30 5.58 1,420
2004 2003-12-13 6.24 2,040
2005 2004-12-10 5.39 1,250
2006 2005-12-30 7.02 3,060
2007 2006-12-14 6.42 2,240
2008 2007-11-17 5.05 1,130
2009 2009-01-01 6.70 2,800
2010 2010-06-02 4.76 925
2011 2011-01-16 7.88 4,600
2012 2011-12-30 6.50 2,430
2013 2012-12-04 6.50 2,550
2014 2014-02-12 6.34 2,360
2015 2014-12-21 6.35 2,370
2016 2015-12-07 5.15 1,270
2017 2017-03-09 5.25 1,490
2018 2017-10-22 5.33 1,550
2019 2019-04-08 5.89 2,050
2020 2020-01-28 4.27 816
2021 2020-12-20 5.26 1,490
?
  Peak Streamflow Qualification Codes.